Time;durP1;ratioP1;P1;durP2;ratioP2;P2;SDS_P1;SDS_P2;PMS_P1;PMS_P2;Temp;Humidity;BMP_temperature;BMP_pressure;BME280_temperature;BME280_humidity;BME280_pressure;Samples;Min_cycle;Max_cycle;Signal;HPM_P1;HPM_P2
2024/01/06 00:01:23;;;;;;;15.02;10.00;;;6.90;94.70;;;;;;5052571;28;20075;-33
2024/01/06 00:03:48;;;;;;;13.02;9.00;;;6.90;94.80;;;;;;5053751;28;20032;-33
2024/01/06 00:06:14;;;;;;;12.43;8.75;;;6.90;94.90;;;;;;5053369;28;20028;-35
2024/01/06 00:08:40;;;;;;;14.18;9.25;;;6.90;95.10;;;;;;5053680;28;20025;-33
2024/01/06 00:11:05;;;;;;;15.73;9.95;;;6.90;94.80;;;;;;5052675;28;20067;-33
2024/01/06 00:13:31;;;;;;;12.75;8.68;;;6.90;94.80;;;;;;5053506;28;20017;-33
2024/01/06 00:15:57;;;;;;;14.73;9.30;;;6.90;94.70;;;;;;5053726;28;20021;-33
2024/01/06 00:18:22;;;;;;;13.85;8.98;;;6.80;94.60;;;;;;5053731;28;20485;-33
2024/01/06 00:20:48;;;;;;;13.23;8.93;;;6.80;94.70;;;;;;5052209;28;20378;-33
2024/01/06 00:23:14;;;;;;;15.30;10.15;;;6.80;94.70;;;;;;5053132;28;20433;-33
2024/01/06 00:25:39;;;;;;;15.65;9.68;;;6.80;94.70;;;;;;5053552;28;20131;-33
2024/01/06 00:28:05;;;;;;;14.45;9.02;;;6.80;94.50;;;;;;5053106;28;20024;-33
2024/01/06 00:30:30;;;;;;;12.82;8.57;;;6.70;94.60;;;;;;5053386;28;20062;-33
2024/01/06 00:32:56;;;;;;;13.38;8.25;;;6.70;94.60;;;;;;5052902;28;20377;-33
2024/01/06 00:35:22;;;;;;;13.50;8.45;;;6.70;94.60;;;;;;5053385;28;20452;-34
2024/01/06 00:37:47;;;;;;;13.00;8.55;;;6.70;94.60;;;;;;5053210;28;20033;-33
2024/01/06 00:40:13;;;;;;;12.18;8.30;;;6.60;94.60;;;;;;5053343;28;20021;-34
2024/01/06 00:42:38;;;;;;;12.27;7.97;;;6.60;94.60;;;;;;5053188;28;20079;-34
2024/01/06 00:45:05;;;;;;;12.48;7.85;;;6.60;94.60;;;;;;5053013;28;20500;-34
2024/01/06 00:47:31;;;;;;;10.80;7.10;;;6.60;94.70;;;;;;5052974;28;20036;-33
2024/01/06 00:49:56;;;;;;;11.73;8.10;;;6.60;94.70;;;;;;5052980;28;20017;-33
2024/01/06 00:52:22;;;;;;;11.85;7.70;;;6.60;94.50;;;;;;5052617;28;20047;-33
2024/01/06 00:54:47;;;;;;;11.98;8.05;;;6.50;94.50;;;;;;5052937;28;20059;-33
2024/01/06 00:57:13;;;;;;;12.27;8.07;;;6.50;94.50;;;;;;5052974;28;20024;-33
2024/01/06 00:59:39;;;;;;;12.85;8.73;;;6.50;94.60;;;;;;5053117;28;20053;-33
2024/01/06 01:02:04;;;;;;;14.35;9.13;;;6.50;94.60;;;;;;5052479;28;20025;-34
2024/01/06 01:04:30;;;;;;;14.23;9.02;;;6.50;94.50;;;;;;5052684;28;20025;-33
2024/01/06 01:06:55;;;;;;;12.82;8.45;;;6.50;94.50;;;;;;5052543;28;20064;-33
2024/01/06 01:09:21;;;;;;;13.77;9.00;;;6.40;94.50;;;;;;5052523;28;20068;-32
2024/01/06 01:11:47;;;;;;;12.75;8.52;;;6.40;94.40;;;;;;5052077;28;20068;-32
2024/01/06 01:14:12;;;;;;;13.40;8.50;;;6.40;94.40;;;;;;5052373;28;20024;-32
2024/01/06 01:16:38;;;;;;;13.35;9.10;;;6.40;94.50;;;;;;5052678;28;20158;-32
2024/01/06 01:19:03;;;;;;;13.10;8.60;;;6.40;94.30;;;;;;5052330;28;20028;-33
2024/01/06 01:21:29;;;;;;;13.05;8.68;;;6.40;94.40;;;;;;5052217;28;20470;-32
2024/01/06 01:23:54;;;;;;;14.55;9.70;;;6.40;94.50;;;;;;5051929;28;20044;-32
2024/01/06 01:26:20;;;;;;;13.52;8.73;;;6.40;94.20;;;;;;5052033;28;20114;-32
2024/01/06 01:28:46;;;;;;;13.70;9.10;;;6.30;94.20;;;;;;5052040;28;20032;-36
2024/01/06 01:31:13;;;;;;;13.73;8.93;;;6.30;94.20;;;;;;5052036;28;20028;-38
2024/01/06 01:33:38;;;;;;;12.57;8.30;;;6.30;94.30;;;;;;5051966;28;20048;-39
2024/01/06 01:36:04;;;;;;;12.50;8.52;;;6.40;94.40;;;;;;5052152;28;20025;-38
2024/01/06 01:38:30;;;;;;;11.18;7.45;;;6.30;94.40;;;;;;5051859;28;20027;-37
2024/01/06 01:40:55;;;;;;;13.25;8.23;;;6.30;94.40;;;;;;5051781;28;20025;-32
2024/01/06 01:43:21;;;;;;;13.55;8.60;;;6.40;94.40;;;;;;5051766;28;20458;-32
2024/01/06 01:45:53;;;;;;;14.82;8.50;;;6.30;94.30;;;;;;5051973;28;20029;-32
2024/01/06 01:48:20;;;;;;;11.95;8.13;;;6.40;94.40;;;;;;5051676;28;20025;-33
2024/01/06 01:50:47;;;;;;;13.63;9.02;;;6.40;94.40;;;;;;5051775;28;20031;-33
2024/01/06 01:53:13;;;;;;;14.02;8.85;;;6.40;94.40;;;;;;5051955;28;20473;-33
2024/01/06 01:55:40;;;;;;;13.45;8.63;;;6.40;94.40;;;;;;5052044;28;20470;-33
2024/01/06 01:58:06;;;;;;;12.48;8.10;;;6.40;94.30;;;;;;5051400;28;20108;-33
2024/01/06 02:00:32;;;;;;;13.45;9.20;;;6.40;94.30;;;;;;5051419;28;20033;-33
2024/01/06 02:02:59;;;;;;;12.82;8.70;;;6.40;94.40;;;;;;5051104;28;20151;-33
2024/01/06 02:05:25;;;;;;;11.18;7.55;;;6.40;94.30;;;;;;5051404;28;20029;-33
2024/01/06 02:07:51;;;;;;;13.55;8.45;;;6.40;94.40;;;;;;5051377;28;20041;-33
2024/01/06 02:10:17;;;;;;;14.45;9.27;;;6.50;94.40;;;;;;5051709;28;20047;-33
2024/01/06 02:12:43;;;;;;;17.27;10.10;;;6.40;94.20;;;;;;5051328;28;20493;-34
2024/01/06 02:15:09;;;;;;;18.65;11.55;;;6.40;94.00;;;;;;5051412;28;20049;-33
2024/01/06 02:17:34;;;;;;;19.08;11.98;;;6.30;93.90;;;;;;5051446;28;20400;-33
2024/01/06 02:20:00;;;;;;;18.40;10.85;;;6.20;93.90;;;;;;5050091;28;20437;-33
2024/01/06 02:22:25;;;;;;;18.90;11.48;;;6.10;93.80;;;;;;5051190;28;20021;-33
2024/01/06 02:24:51;;;;;;;18.70;10.85;;;6.00;94.00;;;;;;5051293;28;20049;-32
2024/01/06 02:27:16;;;;;;;20.63;11.30;;;6.00;94.10;;;;;;5051056;28;20026;-32
2024/01/06 02:29:42;;;;;;;19.30;10.95;;;5.90;94.10;;;;;;5051178;28;20104;-33
2024/01/06 02:32:07;;;;;;;18.35;10.50;;;5.90;94.20;;;;;;5051418;28;20028;-33
2024/01/06 02:34:34;;;;;;;21.55;11.95;;;5.90;94.30;;;;;;5051441;28;20076;-33
2024/01/06 02:37:00;;;;;;;18.10;10.65;;;5.90;94.30;;;;;;5055482;28;20167;-33
2024/01/06 02:39:25;;;;;;;17.77;11.02;;;6.00;94.30;;;;;;5055367;28;20485;-33
2024/01/06 02:41:51;;;;;;;17.48;10.27;;;5.90;94.40;;;;;;5053798;28;20438;-33
2024/01/06 02:44:16;;;;;;;18.05;10.57;;;6.00;94.40;;;;;;5055180;28;20416;-33
2024/01/06 02:46:42;;;;;;;19.90;12.05;;;6.00;94.40;;;;;;5055105;28;20057;-32
2024/01/06 02:49:08;;;;;;;17.17;10.50;;;6.00;94.30;;;;;;5055035;28;20067;-32
2024/01/06 02:51:34;;;;;;;18.80;11.63;;;6.00;94.30;;;;;;5054974;28;20021;-33
2024/01/06 02:53:59;;;;;;;19.92;11.60;;;5.90;94.10;;;;;;5055094;28;20059;-32
2024/01/06 02:56:25;;;;;;;18.42;10.95;;;5.90;94.00;;;;;;5053716;28;20495;-32
2024/01/06 02:58:50;;;;;;;19.30;11.55;;;5.80;94.20;;;;;;5053558;28;20066;-33
2024/01/06 03:01:17;;;;;;;21.73;12.68;;;5.80;94.30;;;;;;5054751;28;20021;-33
2024/01/06 03:03:43;;;;;;;18.60;11.80;;;5.80;94.30;;;;;;5054850;28;20040;-32
2024/01/06 03:06:08;;;;;;;20.75;12.02;;;5.80;94.30;;;;;;5054949;28;20389;-34
2024/01/06 03:08:34;;;;;;;19.20;11.60;;;5.80;94.30;;;;;;5054894;28;20029;-33
2024/01/06 03:11:00;;;;;;;22.30;12.88;;;5.80;94.30;;;;;;5055060;28;20025;-33
2024/01/06 03:13:26;;;;;;;19.17;11.85;;;5.80;94.20;;;;;;5054843;28;20013;-34
2024/01/06 03:15:51;;;;;;;18.50;10.73;;;5.80;94.30;;;;;;5054910;28;20024;-34
2024/01/06 03:18:17;;;;;;;18.52;11.70;;;5.80;94.40;;;;;;5054693;28;20519;-33
2024/01/06 03:20:42;;;;;;;20.10;11.43;;;5.80;94.40;;;;;;5054568;28;20033;-33
2024/01/06 03:23:08;;;;;;;18.77;11.18;;;5.90;94.40;;;;;;5054343;28;20033;-33
2024/01/06 03:25:33;;;;;;;19.80;12.85;;;5.90;94.40;;;;;;5054518;28;20370;-33
2024/01/06 03:27:59;;;;;;;19.88;12.48;;;5.90;94.30;;;;;;5054353;28;20025;-33
2024/01/06 03:30:24;;;;;;;18.95;12.23;;;5.80;94.10;;;;;;5054341;28;20021;-33
2024/01/06 03:32:50;;;;;;;19.30;12.18;;;5.80;94.20;;;;;;5054452;28;20108;-33
2024/01/06 03:35:16;;;;;;;17.98;11.25;;;5.80;94.30;;;;;;5054246;28;20032;-34
2024/01/06 03:37:42;;;;;;;20.02;11.95;;;5.80;94.40;;;;;;5054698;28;20083;-33
2024/01/06 03:40:08;;;;;;;18.00;11.48;;;5.90;94.40;;;;;;5054447;28;20120;-33
2024/01/06 03:42:33;;;;;;;15.95;10.55;;;5.80;94.30;;;;;;5054052;28;20052;-33
2024/01/06 03:44:59;;;;;;;17.27;11.43;;;5.80;94.30;;;;;;5054118;28;20025;-32
2024/01/06 03:47:24;;;;;;;18.92;11.35;;;5.90;94.40;;;;;;5053612;28;20029;-33
2024/01/06 03:49:50;;;;;;;16.50;10.63;;;5.90;94.40;;;;;;5054169;28;20119;-33
2024/01/06 03:52:16;;;;;;;17.92;11.05;;;5.90;94.20;;;;;;5053882;28;20028;-34
2024/01/06 03:54:41;;;;;;;21.30;11.98;;;5.80;94.10;;;;;;5054044;28;20029;-33
2024/01/06 03:57:07;;;;;;;20.02;12.57;;;5.80;94.10;;;;;;5053749;28;20043;-33
2024/01/06 03:59:32;;;;;;;19.80;11.52;;;5.70;94.20;;;;;;5052679;28;20120;-33
2024/01/06 04:01:58;;;;;;;19.70;11.50;;;5.70;94.20;;;;;;5053657;28;20025;-33
2024/01/06 04:04:24;;;;;;;19.27;11.00;;;5.70;94.30;;;;;;5053732;28;20029;-33
2024/01/06 04:06:49;;;;;;;19.35;11.10;;;5.70;94.30;;;;;;5053954;28;20086;-32
2024/01/06 04:09:15;;;;;;;19.73;11.18;;;5.70;94.30;;;;;;5053752;28;20092;-32
2024/01/06 04:11:41;;;;;;;22.48;13.00;;;5.80;94.30;;;;;;5052639;28;20032;-32
2024/01/06 04:14:06;;;;;;;19.80;11.55;;;5.70;94.20;;;;;;5053825;28;20021;-33
2024/01/06 04:16:32;;;;;;;21.10;12.43;;;5.70;94.30;;;;;;5053596;28;20044;-33
2024/01/06 04:18:57;;;;;;;20.05;12.55;;;5.70;94.30;;;;;;5053565;28;20430;-32
2024/01/06 04:21:23;;;;;;;21.15;12.98;;;5.70;94.30;;;;;;5053664;28;20028;-33
2024/01/06 04:23:48;;;;;;;21.63;12.85;;;5.70;94.30;;;;;;5053312;28;20025;-36
2024/01/06 04:26:14;;;;;;;19.55;12.02;;;5.70;94.30;;;;;;5053241;28;20085;-37
2024/01/06 04:28:39;;;;;;;22.60;13.30;;;5.70;94.40;;;;;;5053385;28;20114;-35
2024/01/06 04:31:05;;;;;;;20.27;12.88;;;5.70;94.40;;;;;;5053221;28;20021;-39
2024/01/06 04:33:31;;;;;;;24.75;14.85;;;5.70;94.30;;;;;;5053271;28;20041;-36
2024/01/06 04:35:57;;;;;;;24.65;15.68;;;5.80;94.30;;;;;;5053105;28;20470;-38
2024/01/06 04:38:23;;;;;;;24.25;13.98;;;5.70;94.10;;;;;;5053065;28;20025;-37
2024/01/06 04:40:48;;;;;;;23.08;13.85;;;5.60;94.10;;;;;;5053031;28;20467;-36
2024/01/06 04:43:14;;;;;;;24.83;14.88;;;5.60;94.20;;;;;;5052764;28;20508;-36
2024/01/06 04:45:40;;;;;;;25.42;14.13;;;5.50;94.10;;;;;;5052864;28;20048;-37
2024/01/06 04:48:06;;;;;;;26.25;15.55;;;5.40;94.20;;;;;;5052707;28;20551;-43
2024/01/06 04:50:31;;;;;;;29.38;16.42;;;5.40;94.10;;;;;;5052830;28;20362;-36
2024/01/06 04:52:57;;;;;;;22.77;14.60;;;5.30;94.20;;;;;;5052651;28;20079;-38
2024/01/06 04:55:23;;;;;;;25.00;14.77;;;5.30;94.10;;;;;;5052827;28;20033;-39
2024/01/06 04:57:49;;;;;;;24.05;13.65;;;5.20;94.20;;;;;;5052015;28;20057;-39
2024/01/06 05:00:15;;;;;;;20.70;12.35;;;5.20;94.30;;;;;;5053074;28;20063;-40
2024/01/06 05:02:41;;;;;;;24.00;13.45;;;5.20;94.40;;;;;;5053023;28;20385;-36
2024/01/06 05:05:07;;;;;;;21.52;12.30;;;5.20;94.20;;;;;;5052563;28;20055;-39
2024/01/06 05:07:32;;;;;;;18.75;11.23;;;5.20;94.30;;;;;;5052496;28;20068;-40
2024/01/06 05:09:58;;;;;;;18.90;11.70;;;5.10;94.30;;;;;;5052430;28;20479;-36
2024/01/06 05:12:23;;;;;;;17.52;11.15;;;5.10;94.40;;;;;;5052302;28;20025;-39
2024/01/06 05:14:49;;;;;;;18.70;11.15;;;5.10;94.40;;;;;;5052475;28;20025;-37
2024/01/06 05:17:15;;;;;;;18.50;11.18;;;5.10;94.40;;;;;;5052380;28;20166;-37
2024/01/06 05:19:40;;;;;;;18.50;10.90;;;5.10;94.30;;;;;;5052565;28;20040;-35
2024/01/06 05:22:06;;;;;;;19.30;11.90;;;5.10;94.20;;;;;;5052090;28;20060;-37
2024/01/06 05:24:31;;;;;;;19.10;11.20;;;5.00;94.20;;;;;;5051765;28;20473;-36
2024/01/06 05:26:57;;;;;;;19.08;11.85;;;5.00;94.20;;;;;;5052243;28;20033;-40
2024/01/06 05:29:24;;;;;;;21.27;12.38;;;5.00;94.20;;;;;;5052019;28;20027;-37
2024/01/06 05:31:49;;;;;;;20.02;11.35;;;4.90;94.10;;;;;;5052262;28;20469;-35
2024/01/06 05:34:15;;;;;;;18.35;11.50;;;4.90;94.30;;;;;;5051928;28;20075;-39
2024/01/06 05:36:41;;;;;;;19.67;12.05;;;4.90;94.30;;;;;;5052569;28;20385;-37
2024/01/06 05:39:07;;;;;;;18.02;11.13;;;4.90;94.40;;;;;;5052223;28;20036;-39
2024/01/06 05:41:40;;;;;;;18.58;11.43;;;4.90;94.40;;;;;;5052055;28;20091;-38
2024/01/06 05:44:06;;;;;;;18.77;11.35;;;4.90;94.40;;;;;;5051836;28;20025;-38
2024/01/06 05:46:32;;;;;;;19.83;11.15;;;4.90;94.20;;;;;;5051801;28;20025;-38
2024/01/06 05:48:57;;;;;;;16.33;10.70;;;4.90;94.30;;;;;;5052161;28;20104;-36
2024/01/06 05:51:23;;;;;;;17.38;10.45;;;4.80;94.30;;;;;;5051715;28;20021;-35
2024/01/06 05:53:49;;;;;;;18.90;11.40;;;4.80;94.30;;;;;;5051652;28;20028;-35
2024/01/06 05:56:25;;;;;;;21.05;12.52;;;4.80;94.30;;;;;;5051959;28;20021;-38
2024/01/06 05:58:51;;;;;;;19.17;11.27;;;4.80;94.30;;;;;;5051955;28;20399;-36
2024/01/06 06:01:16;;;;;;;17.95;10.50;;;4.80;94.40;;;;;;5051783;28;20152;-40
2024/01/06 06:03:43;;;;;;;17.35;10.43;;;4.80;94.60;;;;;;5051891;28;20017;-38
2024/01/06 06:06:08;;;;;;;16.98;10.55;;;4.70;94.20;;;;;;5051795;28;20099;-39
2024/01/06 06:08:34;;;;;;;17.75;10.45;;;4.70;94.20;;;;;;5051524;28;20099;-37
2024/01/06 06:11:01;;;;;;;20.25;11.32;;;4.70;94.30;;;;;;5051796;28;20044;-36
2024/01/06 06:13:28;;;;;;;19.63;11.32;;;4.70;94.20;;;;;;5051515;28;20059;-38
2024/01/06 06:15:54;;;;;;;15.80;9.90;;;4.60;94.20;;;;;;5051438;28;20021;-36
2024/01/06 06:18:20;;;;;;;16.63;11.07;;;4.60;94.30;;;;;;5051760;28;20076;-40
2024/01/06 06:20:46;;;;;;;18.10;11.77;;;4.60;94.40;;;;;;5051367;28;20478;-41
2024/01/06 06:23:11;;;;;;;18.45;10.93;;;4.70;94.40;;;;;;5051523;28;20021;-36
2024/01/06 06:25:38;;;;;;;19.10;11.18;;;4.70;94.30;;;;;;5051627;28;20086;-37
2024/01/06 06:28:04;;;;;;;16.65;10.52;;;4.60;94.10;;;;;;5051064;28;20112;-35
2024/01/06 06:30:30;;;;;;;16.90;11.57;;;4.60;94.20;;;;;;5051644;28;20096;-38
2024/01/06 06:32:55;;;;;;;16.02;10.32;;;4.60;94.10;;;;;;5050974;28;20029;-37
2024/01/06 06:35:23;;;;;;;16.38;10.27;;;4.60;94.20;;;;;;5051307;28;20390;-35
2024/01/06 06:37:49;;;;;;;16.15;10.13;;;4.60;94.20;;;;;;5051609;28;20025;-35
2024/01/06 06:40:15;;;;;;;14.50;9.82;;;4.60;94.20;;;;;;5051072;28;20028;-37
2024/01/06 06:42:41;;;;;;;16.77;10.15;;;4.60;94.30;;;;;;5051088;28;20025;-35
2024/01/06 06:45:07;;;;;;;15.73;10.10;;;4.60;94.20;;;;;;5051172;28;20543;-37
2024/01/06 06:47:32;;;;;;;18.25;10.63;;;4.60;94.20;;;;;;5051171;28;20501;-35
2024/01/06 06:49:58;;;;;;;16.38;10.05;;;4.60;94.20;;;;;;5051007;28;20063;-37
2024/01/06 06:52:23;;;;;;;15.45;10.13;;;4.60;94.20;;;;;;5050815;28;20094;-38
2024/01/06 06:54:49;;;;;;;15.90;10.43;;;4.60;94.10;;;;;;5051089;28;20076;-38
2024/01/06 06:57:15;;;;;;;15.32;10.32;;;4.60;93.90;;;;;;5050991;28;20020;-38
2024/01/06 06:59:41;;;;;;;15.63;10.25;;;4.60;94.40;;;;;;5051074;28;20017;-37
2024/01/06 07:02:07;;;;;;;13.85;9.90;;;4.60;94.20;;;;;;5050849;28;20032;-35
2024/01/06 07:04:32;;;;;;;15.23;9.65;;;4.70;94.20;;;;;;5050967;28;20380;-40
2024/01/06 07:06:58;;;;;;;15.00;9.52;;;4.70;94.10;;;;;;5050827;28;20035;-41
2024/01/06 07:09:24;;;;;;;15.68;9.50;;;4.70;94.10;;;;;;5050944;28;20083;-36
2024/01/06 07:11:50;;;;;;;15.23;10.05;;;4.70;94.10;;;;;;5050785;28;20017;-37
2024/01/06 07:14:16;;;;;;;13.80;9.90;;;4.70;94.10;;;;;;5050900;28;20027;-38
2024/01/06 07:16:41;;;;;;;16.98;11.35;;;4.70;94.00;;;;;;5051001;28;20095;-36
2024/01/06 07:19:07;;;;;;;14.98;10.27;;;4.60;93.80;;;;;;5050816;28;20545;-37
2024/01/06 07:21:32;;;;;;;14.75;9.90;;;4.60;93.80;;;;;;5052646;28;20029;-40
2024/01/06 07:23:58;;;;;;;15.80;10.10;;;4.50;93.80;;;;;;5054350;28;20033;-40
2024/01/06 07:26:23;;;;;;;16.75;10.52;;;4.50;93.90;;;;;;5054408;28;20029;-40
2024/01/06 07:28:49;;;;;;;14.55;9.82;;;4.50;94.00;;;;;;5054276;28;20032;-38
2024/01/06 07:31:15;;;;;;;14.52;9.82;;;4.50;94.00;;;;;;5054319;28;20040;-41
2024/01/06 07:33:40;;;;;;;14.13;9.10;;;4.60;94.00;;;;;;5054295;28;20083;-42
2024/01/06 07:36:06;;;;;;;13.95;9.35;;;4.60;94.00;;;;;;5054263;28;20054;-40
2024/01/06 07:38:33;;;;;;;13.68;9.02;;;4.60;94.10;;;;;;5054502;28;20068;-37
2024/01/06 07:40:58;;;;;;;16.02;10.05;;;4.70;94.00;;;;;;5054099;28;20551;-38
2024/01/06 07:43:24;;;;;;;14.05;9.70;;;4.70;93.90;;;;;;5054060;28;20033;-38
2024/01/06 07:45:50;;;;;;;14.80;9.73;;;4.70;93.70;;;;;;5054120;28;20104;-37
2024/01/06 07:48:16;;;;;;;11.13;8.35;;;4.60;93.70;;;;;;5054187;28;20048;-41
2024/01/06 07:50:42;;;;;;;15.93;9.57;;;4.50;93.80;;;;;;5054102;28;20233;-35
2024/01/06 07:53:07;;;;;;;14.80;9.45;;;4.60;93.80;;;;;;5053843;28;20056;-41
2024/01/06 07:55:33;;;;;;;14.25;8.95;;;4.50;93.80;;;;;;5053884;28;20032;-37
2024/01/06 07:57:58;;;;;;;14.98;9.35;;;4.50;93.80;;;;;;5053810;28;20021;-38
2024/01/06 08:00:24;;;;;;;13.93;9.32;;;4.50;93.60;;;;;;5053834;28;20029;-36
2024/01/06 08:02:50;;;;;;;13.93;8.85;;;4.50;93.60;;;;;;5053625;28;20067;-34
2024/01/06 08:05:15;;;;;;;13.65;9.30;;;4.50;93.70;;;;;;5053983;28;20071;-37
2024/01/06 08:07:41;;;;;;;15.38;9.15;;;4.40;93.70;;;;;;5053737;28;20029;-36
2024/01/06 08:10:08;;;;;;;12.25;8.40;;;4.40;93.70;;;;;;5053557;28;20104;-38
2024/01/06 08:12:34;;;;;;;14.43;9.38;;;4.50;93.80;;;;;;5053563;28;20437;-36
2024/01/06 08:15:00;;;;;;;11.93;8.35;;;4.50;93.80;;;;;;5053505;28;20359;-35
2024/01/06 08:17:25;;;;;;;11.50;7.85;;;4.50;93.80;;;;;;5053517;28;20040;-38
2024/01/06 08:19:51;;;;;;;12.23;8.23;;;4.50;93.70;;;;;;5052296;28;20025;-39
2024/01/06 08:22:16;;;;;;;13.18;8.55;;;4.50;93.80;;;;;;5051978;28;20123;-37
2024/01/06 08:24:42;;;;;;;14.32;9.65;;;4.50;93.60;;;;;;5053305;28;20496;-36
2024/01/06 08:27:08;;;;;;;17.27;10.20;;;4.50;93.40;;;;;;5053225;28;20055;-41
2024/01/06 08:29:34;;;;;;;17.00;9.05;;;4.40;93.20;;;;;;5052011;28;20024;-39
2024/01/06 08:31:59;;;;;;;15.55;9.50;;;4.30;93.40;;;;;;5052851;28;20029;-40
2024/01/06 08:34:25;;;;;;;15.23;9.43;;;4.30;93.50;;;;;;5052677;28;20098;-35
2024/01/06 08:36:51;;;;;;;19.30;10.32;;;4.30;93.40;;;;;;5053104;28;20039;-37
2024/01/06 08:39:16;;;;;;;13.88;9.13;;;4.20;93.40;;;;;;5053480;28;20025;-39
2024/01/06 08:41:42;;;;;;;14.68;9.60;;;4.20;93.40;;;;;;5053055;28;20033;-35
2024/01/06 08:44:08;;;;;;;17.40;9.50;;;4.20;93.60;;;;;;5053019;28;20083;-37
2024/01/06 08:46:33;;;;;;;16.02;9.77;;;4.20;93.60;;;;;;5052916;28;20035;-37
2024/01/06 08:49:00;;;;;;;17.30;9.73;;;4.30;93.60;;;;;;5053215;28;20029;-39
2024/01/06 08:51:26;;;;;;;16.95;9.73;;;4.30;93.60;;;;;;5051441;28;20025;-36
2024/01/06 08:53:52;;;;;;;14.52;9.00;;;4.30;93.70;;;;;;5052904;28;20070;-37
2024/01/06 08:56:17;;;;;;;16.88;10.27;;;4.30;93.60;;;;;;5052668;28;20029;-36
2024/01/06 08:58:43;;;;;;;20.38;10.48;;;4.30;93.60;;;;;;5052623;28;20508;-40
2024/01/06 09:01:09;;;;;;;19.23;11.10;;;4.30;93.40;;;;;;5052587;28;20375;-40
2024/01/06 09:03:34;;;;;;;16.95;10.23;;;4.30;93.50;;;;;;5052396;28;20040;-35
2024/01/06 09:06:00;;;;;;;20.67;11.25;;;4.30;93.50;;;;;;5051268;28;20086;-37
2024/01/06 09:08:26;;;;;;;16.70;10.27;;;4.30;93.40;;;;;;5052461;28;20040;-36
2024/01/06 09:10:51;;;;;;;17.50;10.25;;;4.30;93.50;;;;;;5052518;28;20033;-36
2024/01/06 09:13:21;;;;;;;21.17;11.00;;;4.20;93.40;;;;;;5052286;28;20029;-39
2024/01/06 09:15:47;;;;;;;17.95;11.27;;;4.20;93.50;;;;;;5052371;28;20056;-39
2024/01/06 09:18:12;;;;;;;19.55;11.00;;;4.20;93.30;;;;;;5052313;28;20083;-37
2024/01/06 09:20:38;;;;;;;18.15;10.90;;;4.20;93.50;;;;;;5052121;28;20482;-38
2024/01/06 09:23:04;;;;;;;18.45;9.77;;;4.20;93.50;;;;;;5050530;28;20114;-38
2024/01/06 09:25:29;;;;;;;19.13;10.63;;;4.20;93.60;;;;;;5052191;28;20033;-35
2024/01/06 09:27:55;;;;;;;17.60;11.23;;;4.30;93.60;;;;;;5051920;28;20362;-38
2024/01/06 09:30:21;;;;;;;16.58;10.85;;;4.30;93.40;;;;;;5051960;28;20063;-36
2024/01/06 09:32:46;;;;;;;20.83;12.52;;;4.30;93.40;;;;;;5051763;28;20112;-36
2024/01/06 09:35:12;;;;;;;20.73;11.70;;;4.30;93.50;;;;;;5052058;28;20040;-37
2024/01/06 09:37:37;;;;;;;20.38;11.38;;;4.20;93.50;;;;;;5051879;28;20033;-39
2024/01/06 09:40:03;;;;;;;17.52;10.93;;;4.20;93.40;;;;;;5051900;28;20478;-39
2024/01/06 09:42:29;;;;;;;20.95;12.07;;;4.20;93.30;;;;;;5051862;28;20025;-39
2024/01/06 09:44:55;;;;;;;22.80;11.80;;;4.10;93.30;;;;;;5051616;28;20036;-37
2024/01/06 09:47:22;;;;;;;19.55;11.68;;;4.20;93.40;;;;;;5051661;28;20120;-39
2024/01/06 09:49:53;;;;;;;20.25;12.70;;;4.10;93.40;;;;;;5051780;28;20036;-38
2024/01/06 09:52:22;;;;;;;19.63;12.05;;;4.20;93.40;;;;;;5051616;28;20053;-40
2024/01/06 09:54:54;;;;;;;21.60;12.30;;;4.10;93.40;;;;;;5050352;28;20053;-35
2024/01/06 09:57:21;;;;;;;17.85;11.25;;;4.10;93.50;;;;;;5051595;28;20047;-36
2024/01/06 09:59:47;;;;;;;21.95;12.15;;;4.20;93.60;;;;;;5051710;28;20491;-39
2024/01/06 10:02:16;;;;;;;21.98;13.15;;;4.20;93.40;;;;;;5051518;28;20573;-41
2024/01/06 10:04:45;;;;;;;18.95;11.45;;;4.20;93.40;;;;;;5051812;28;20057;-37
2024/01/06 10:07:13;;;;;;;19.88;12.00;;;4.20;93.40;;;;;;5051466;28;20040;-37
2024/01/06 10:09:40;;;;;;;18.10;11.25;;;4.20;93.50;;;;;;5051545;28;20021;-40
2024/01/06 10:12:06;;;;;;;19.92;11.70;;;4.20;93.40;;;;;;5051375;28;20047;-38
2024/01/06 10:14:31;;;;;;;20.38;12.80;;;4.20;93.30;;;;;;5051749;28;20025;-37
2024/01/06 10:16:57;;;;;;;21.02;12.25;;;4.10;93.20;;;;;;5051494;28;20103;-38
2024/01/06 10:19:23;;;;;;;20.40;11.80;;;4.10;93.30;;;;;;5051299;28;20045;-40
2024/01/06 10:21:49;;;;;;;19.45;12.10;;;4.10;93.30;;;;;;5051221;28;20029;-36
2024/01/06 10:24:18;;;;;;;20.70;12.80;;;4.10;93.40;;;;;;5051441;28;20033;-36
2024/01/06 10:26:45;;;;;;;17.73;10.43;;;4.20;93.50;;;;;;5051293;28;20059;-39
2024/01/06 10:29:12;;;;;;;17.92;11.35;;;4.20;93.40;;;;;;5051353;28;20102;-42
2024/01/06 10:31:38;;;;;;;18.70;11.45;;;4.20;93.40;;;;;;5051153;28;20032;-36
2024/01/06 10:34:05;;;;;;;19.52;11.63;;;4.20;93.20;;;;;;5051227;28;20561;-37
2024/01/06 10:36:31;;;;;;;17.63;11.27;;;4.20;93.20;;;;;;5051204;28;20021;-35
2024/01/06 10:38:57;;;;;;;17.80;11.88;;;4.10;93.10;;;;;;5051144;28;20029;-38
2024/01/06 10:41:23;;;;;;;19.88;12.00;;;4.10;93.10;;;;;;5051056;28;20111;-36
2024/01/06 10:43:51;;;;;;;16.60;11.50;;;4.10;93.10;;;;;;5051215;28;20028;-41
2024/01/06 10:46:19;;;;;;;18.70;11.40;;;4.10;93.10;;;;;;5051185;28;20021;-38
2024/01/06 10:48:45;;;;;;;19.70;12.20;;;4.10;93.30;;;;;;5051167;28;20020;-39
2024/01/06 10:51:13;;;;;;;19.92;12.38;;;4.10;93.30;;;;;;5050339;28;20535;-41
2024/01/06 10:53:40;;;;;;;16.85;10.70;;;4.10;93.20;;;;;;5051029;28;20013;-40
2024/01/06 10:56:07;;;;;;;20.58;12.07;;;4.10;93.30;;;;;;5052285;28;20029;-41
2024/01/06 10:58:37;;;;;;;18.55;11.13;;;4.20;93.30;;;;;;5055178;28;20071;-40
2024/01/06 11:01:03;;;;;;;17.92;11.38;;;4.20;93.30;;;;;;5055083;28;20449;-38
2024/01/06 11:03:29;;;;;;;19.45;11.55;;;4.20;93.20;;;;;;5054762;28;20036;-42
2024/01/06 11:05:57;;;;;;;16.90;11.40;;;4.20;93.00;;;;;;5055022;28;20409;-40
2024/01/06 11:08:24;;;;;;;18.25;11.50;;;4.20;93.00;;;;;;5054730;28;20420;-40
2024/01/06 11:10:50;;;;;;;18.55;11.73;;;4.10;93.00;;;;;;5054678;28;20017;-42
2024/01/06 11:13:22;;;;;;;21.73;12.35;;;4.10;93.10;;;;;;5054633;28;20024;-39
2024/01/06 11:15:49;;;;;;;18.58;12.20;;;4.10;93.20;;;;;;5054681;28;20049;-36
2024/01/06 11:18:34;;;;;;;19.23;12.32;;;4.20;93.10;;;;;;5054662;28;20499;-36
2024/01/06 11:21:18;;;;;;;19.60;11.40;;;4.20;93.10;;;;;;5054330;28;20040;-36
2024/01/06 11:23:45;;;;;;;18.15;11.68;;;4.20;93.10;;;;;;5054453;28;20029;-38
2024/01/06 11:26:10;;;;;;;21.65;12.65;;;4.10;92.90;;;;;;5054309;28;20021;-35
2024/01/06 11:28:46;;;;;;;19.65;12.43;;;4.10;92.90;;;;;;5053000;28;20060;-37
2024/01/06 11:31:12;;;;;;;17.98;12.23;;;4.10;93.00;;;;;;5054452;28;20067;-39
2024/01/06 11:33:47;;;;;;;19.52;11.40;;;4.10;92.90;;;;;;5054141;28;20065;-38
2024/01/06 11:36:19;;;;;;;19.23;11.30;;;4.10;93.00;;;;;;5054646;28;20043;-37
2024/01/06 11:38:50;;;;;;;22.60;12.30;;;4.10;93.10;;;;;;5054258;28;20025;-38
2024/01/06 11:41:51;;;;;;;17.98;12.50;;;4.00;93.00;;;;;;5054479;28;20291;-37
2024/01/06 11:44:23;;;;;;;18.58;11.27;;;4.00;93.00;;;;;;5054414;28;20017;-34
2024/01/06 11:46:49;;;;;;;18.15;10.88;;;4.00;93.00;;;;;;5054070;28;20381;-34
2024/01/06 11:49:16;;;;;;;18.08;11.02;;;4.10;93.10;;;;;;5053175;28;20067;-37
2024/01/06 11:51:41;;;;;;;18.25;12.00;;;4.10;93.00;;;;;;5054253;28;20504;-37
2024/01/06 11:54:09;;;;;;;15.80;10.73;;;4.10;92.90;;;;;;5054019;28;20025;-37
2024/01/06 11:56:35;;;;;;;16.40;10.48;;;4.00;92.80;;;;;;5053889;28;20104;-35
2024/01/06 11:59:00;;;;;;;15.73;10.70;;;4.00;92.80;;;;;;5053596;28;20461;-40
2024/01/06 12:01:26;;;;;;;15.60;10.65;;;4.00;92.80;;;;;;5053583;28;20040;-36
2024/01/06 12:03:55;;;;;;;14.32;9.73;;;4.00;92.60;;;;;;5053766;28;20021;-38
2024/01/06 12:06:23;;;;;;;15.77;10.23;;;3.90;92.80;;;;;;5053460;28;20013;-37
2024/01/06 12:08:49;;;;;;;15.27;10.38;;;4.00;92.90;;;;;;5053760;28;20021;-36
2024/01/06 12:11:18;;;;;;;17.88;9.40;;;4.00;92.90;;;;;;5053630;28;20021;-35
2024/01/06 12:13:44;;;;;;;14.63;10.07;;;4.00;92.90;;;;;;5053902;28;20028;-33
2024/01/06 12:16:10;;;;;;;15.38;10.60;;;4.00;92.80;;;;;;5052565;28;20025;-35
2024/01/06 12:18:35;;;;;;;15.30;10.90;;;4.00;92.60;;;;;;5053464;28;20488;-37
2024/01/06 12:21:01;;;;;;;13.90;9.93;;;4.00;92.50;;;;;;5053516;28;20386;-36
2024/01/06 12:23:28;;;;;;;14.55;9.98;;;4.00;92.70;;;;;;5053276;28;20025;-38
2024/01/06 12:25:56;;;;;;;14.05;9.98;;;4.00;92.70;;;;;;5053322;28;20025;-36
2024/01/06 12:28:23;;;;;;;14.85;10.70;;;4.00;92.70;;;;;;5053321;28;20485;-35
2024/01/06 12:30:48;;;;;;;16.75;11.10;;;4.00;92.70;;;;;;5053276;28;20035;-37
2024/01/06 12:33:14;;;;;;;17.00;11.80;;;3.90;92.60;;;;;;5051856;28;20045;-36
2024/01/06 12:35:41;;;;;;;17.95;11.20;;;3.90;92.70;;;;;;5053298;28;20021;-36